Time;durP1;ratioP1;P1;durP2;ratioP2;P2;SDS_P1;SDS_P2;PMS_P1;PMS_P2;Temp;Humidity;BMP_temperature;BMP_pressure;BME280_temperature;BME280_humidity;BME280_pressure;Samples;Min_cycle;Max_cycle;Signal;HPM_P1;HPM_P2
2022/03/21 00:01:07;;;;;;;40.28;27.63;;;3.00;99.90;;;;;;4899603;29;20495;-88
2022/03/21 00:03:32;;;;;;;;;;;3.00;99.90;;;;;;4899636;29;20044;-88
2022/03/21 00:05:59;;;;;;;37.78;25.65;;;2.90;99.90;;;;;;4899334;29;19907;-87
2022/03/21 00:08:26;;;;;;;38.17;25.83;;;2.90;99.90;;;;;;4899367;29;20045;-87
2022/03/21 00:10:54;;;;;;;36.80;25.20;;;2.90;99.90;;;;;;4899351;29;20032;-87
2022/03/21 00:13:20;;;;;;;36.65;26.20;;;2.80;99.90;;;;;;4883548;29;20123;-87
2022/03/21 00:15:47;;;;;;;35.28;24.55;;;2.70;99.90;;;;;;4898891;29;20028;-87
2022/03/21 00:18:14;;;;;;;36.30;24.35;;;2.70;99.90;;;;;;4898578;29;20052;-87
2022/03/21 00:20:41;;;;;;;36.38;24.45;;;2.70;99.90;;;;;;4898822;29;20021;-87
2022/03/21 00:23:10;;;;;;;39.88;27.17;;;2.60;99.90;;;;;;4900042;29;20037;-86
2022/03/21 00:25:36;;;;;;;37.17;25.83;;;2.60;99.90;;;;;;4898813;29;20414;-86
2022/03/21 00:28:02;;;;;;;39.50;26.20;;;2.60;99.90;;;;;;4909469;29;20033;-87
2022/03/21 00:30:29;;;;;;;38.35;26.77;;;2.60;99.90;;;;;;4898276;29;20036;-88
2022/03/21 00:32:55;;;;;;;38.20;26.15;;;2.50;99.90;;;;;;4898280;29;20040;-88
2022/03/21 00:35:21;;;;;;;39.03;26.92;;;2.50;99.90;;;;;;4898791;29;20144;-87
2022/03/21 00:37:48;;;;;;;35.20;24.75;;;2.50;99.90;;;;;;4899724;29;20051;-88
2022/03/21 00:40:16;;;;;;;41.05;28.60;;;2.50;99.90;;;;;;4898757;29;20041;-87
2022/03/21 00:42:44;;;;;;;36.55;25.63;;;2.40;99.90;;;;;;4898947;29;20062;-87
2022/03/21 00:45:12;;;;;;;37.58;25.83;;;2.40;99.90;;;;;;4883658;29;20404;-87
2022/03/21 00:47:38;;;;;;;38.45;26.50;;;2.40;99.90;;;;;;4902270;29;20033;-87
2022/03/21 00:50:07;;;;;;;37.40;25.25;;;2.40;99.90;;;;;;4885852;29;20032;-87
2022/03/21 00:52:42;;;;;;;32.92;23.38;;;2.40;99.90;;;;;;4898232;29;20080;-87
2022/03/21 00:55:09;;;;;;;33.83;23.75;;;2.40;99.90;;;;;;4882040;29;20110;-87
2022/03/21 00:57:36;;;;;;;36.28;24.60;;;2.40;99.90;;;;;;4897968;29;20044;-86
2022/03/21 01:00:06;;;;;;;35.10;25.23;;;2.40;99.90;;;;;;4897588;29;20025;-87
2022/03/21 01:02:32;;;;;;;35.53;24.08;;;2.40;99.90;;;;;;4901052;29;20095;-88
2022/03/21 01:04:58;;;;;;;40.65;28.25;;;2.40;99.90;;;;;;4897698;29;20033;-87
2022/03/21 01:07:24;;;;;;;38.80;26.77;;;2.40;99.90;;;;;;4898574;29;20076;-87
2022/03/21 01:09:50;;;;;;;37.15;26.00;;;2.40;99.90;;;;;;4898828;29;20052;-87
2022/03/21 01:12:15;;;;;;;40.58;26.08;;;2.30;99.90;;;;;;4897406;29;20043;-87
2022/03/21 01:14:41;;;;;;;37.58;26.33;;;2.30;99.90;;;;;;4897443;29;20029;-86
2022/03/21 01:17:07;;;;;;;38.58;25.65;;;2.30;99.90;;;;;;4897366;29;20075;-87
2022/03/21 01:19:32;;;;;;;33.17;24.20;;;2.30;99.90;;;;;;4897504;29;20119;-86
2022/03/21 01:21:58;;;;;;;37.67;25.10;;;2.30;99.90;;;;;;4898539;29;20479;-87
2022/03/21 01:24:24;;;;;;;38.63;26.05;;;2.30;99.90;;;;;;4898666;29;20036;-86
2022/03/21 01:26:50;;;;;;;35.15;26.30;;;2.30;99.90;;;;;;4898469;29;20096;-86
2022/03/21 01:29:16;;;;;;;39.00;26.30;;;2.30;99.90;;;;;;4897138;29;20060;-86
2022/03/21 01:31:41;;;;;;;39.03;27.40;;;2.30;99.90;;;;;;4898589;29;20049;-87
2022/03/21 01:34:07;;;;;;;40.65;27.85;;;2.20;99.90;;;;;;4898676;29;20037;-87
2022/03/21 01:36:32;;;;;;;36.75;27.08;;;2.10;99.90;;;;;;4897160;29;20088;-86
2022/03/21 01:38:58;;;;;;;36.75;26.42;;;2.10;99.90;;;;;;4882078;29;20037;-87
2022/03/21 01:41:24;;;;;;;37.78;24.60;;;2.10;99.90;;;;;;4881912;29;20047;-87
2022/03/21 01:44:03;;;;;;;36.38;24.90;;;2.10;99.90;;;;;;4898775;29;20037;-87
2022/03/21 01:46:31;;;;;;;34.35;24.08;;;2.00;99.90;;;;;;4897090;29;20060;-87
2022/03/21 01:48:57;;;;;;;36.03;24.88;;;2.00;99.90;;;;;;4881683;29;20519;-86
2022/03/21 01:51:26;;;;;;;35.25;24.17;;;2.00;99.90;;;;;;4897240;29;20032;-87
2022/03/21 01:56:43;;;;;;;38.85;27.52;;;2.10;99.90;;;;;;4900403;29;20059;-87
2022/03/21 01:59:09;;;;;;;42.15;28.50;;;2.00;99.90;;;;;;4902236;29;20068;-87
2022/03/21 02:01:36;;;;;;;42.67;30.00;;;1.90;99.90;;;;;;4885319;29;20048;-87
2022/03/21 02:04:01;;;;;;;41.08;27.85;;;1.90;99.90;;;;;;4901849;29;20115;-87
2022/03/21 02:06:28;;;;;;;37.90;27.15;;;1.90;99.90;;;;;;4902015;29;20120;-88
2022/03/21 02:08:58;;;;;;;35.25;25.48;;;1.90;99.90;;;;;;4900770;29;20441;-87
2022/03/21 02:11:32;;;;;;;38.75;27.60;;;1.90;99.90;;;;;;4900766;29;20040;-87
2022/03/21 02:14:00;;;;;;;37.17;26.38;;;1.90;99.90;;;;;;4885220;29;20517;-87
2022/03/21 02:16:27;;;;;;;37.35;25.10;;;1.90;99.90;;;;;;4884944;29;20058;-87
2022/03/21 02:18:53;;;;;;;36.85;25.15;;;1.90;99.90;;;;;;4902266;29;20040;-87
2022/03/21 02:21:31;;;;;;;39.13;27.10;;;1.80;99.90;;;;;;4902057;29;20052;-87
2022/03/21 02:24:07;;;;;;;37.42;25.17;;;1.80;99.90;;;;;;4884944;29;20096;-87
2022/03/21 02:26:33;;;;;;;36.05;25.23;;;1.80;99.90;;;;;;4908127;29;20221;-87
2022/03/21 02:28:59;;;;;;;33.30;23.27;;;1.80;99.90;;;;;;4885116;29;20120;-86
2022/03/21 02:31:27;;;;;;;36.38;24.63;;;1.80;99.90;;;;;;4900851;29;20060;-86
2022/03/21 02:33:54;;;;;;;32.65;23.33;;;1.80;99.90;;;;;;4901214;29;20043;-88
2022/03/21 02:36:21;;;;;;;33.78;22.95;;;1.80;99.90;;;;;;4900811;29;20037;-87
2022/03/21 02:38:48;;;;;;;33.97;23.67;;;1.80;99.90;;;;;;4900559;29;20044;-87
2022/03/21 02:41:15;;;;;;;34.38;24.25;;;1.80;99.90;;;;;;4900756;29;20036;-87
2022/03/21 02:43:52;;;;;;;36.17;24.15;;;1.80;99.90;;;;;;4900270;29;20029;-86
2022/03/21 02:46:18;;;;;;;38.47;24.95;;;1.80;99.90;;;;;;4900312;29;20036;-87
2022/03/21 02:48:48;;;;;;;32.20;23.13;;;1.80;99.90;;;;;;4900307;29;20092;-86
2022/03/21 02:51:15;;;;;;;37.78;22.73;;;1.80;99.90;;;;;;4900203;29;20036;-87
2022/03/21 02:53:42;;;;;;;34.38;24.20;;;1.80;99.90;;;;;;4884660;29;20127;-87
2022/03/21 02:56:07;;;;;;;35.17;23.10;;;1.80;99.90;;;;;;4901193;29;20484;-87
2022/03/21 02:58:33;;;;;;;33.00;22.95;;;1.70;99.90;;;;;;4884059;29;20043;-86
2022/03/21 03:01:14;;;;;;;31.55;21.55;;;1.70;99.90;;;;;;4901219;29;20123;-87
2022/03/21 03:03:40;;;;;;;33.85;22.15;;;1.80;99.90;;;;;;4900035;29;20052;-86
2022/03/21 03:06:07;;;;;;;30.20;21.52;;;1.80;99.90;;;;;;4900283;29;20036;-87
2022/03/21 03:08:35;;;;;;;32.92;21.92;;;1.80;99.90;;;;;;4884561;29;20036;-87
2022/03/21 03:11:00;;;;;;;30.90;21.77;;;1.80;99.90;;;;;;4899890;29;20044;-86
2022/03/21 03:13:26;;;;;;;30.67;22.05;;;1.80;99.90;;;;;;4899816;29;20404;-87
2022/03/21 03:15:52;;;;;;;32.53;21.80;;;1.80;99.90;;;;;;4906830;29;20036;-87
2022/03/21 03:18:18;;;;;;;31.05;20.83;;;1.80;99.90;;;;;;4901090;29;20165;-87
2022/03/21 03:20:53;;;;;;;31.30;21.70;;;1.80;99.90;;;;;;4899740;29;20040;-87
2022/03/21 03:23:20;;;;;;;33.78;20.98;;;1.80;99.90;;;;;;4899710;29;20124;-86
2022/03/21 03:25:46;;;;;;;29.58;20.85;;;1.90;99.90;;;;;;4899516;29;20024;-87
2022/03/21 03:28:13;;;;;;;30.02;21.48;;;1.90;99.90;;;;;;4900774;29;20044;-87
2022/03/21 03:30:39;;;;;;;31.05;20.92;;;1.90;99.90;;;;;;4900455;29;20104;-86
2022/03/21 03:33:05;;;;;;;31.42;21.00;;;1.90;99.90;;;;;;4899370;29;20040;-87
2022/03/21 03:35:31;;;;;;;32.00;21.08;;;1.90;99.90;;;;;;4899676;29;20028;-87
2022/03/21 03:37:57;;;;;;;32.42;21.35;;;1.90;99.90;;;;;;4883914;29;20045;-87
2022/03/21 03:40:22;;;;;;;33.20;22.17;;;1.80;99.90;;;;;;4899196;29;20036;-86
2022/03/21 03:42:48;;;;;;;38.05;23.95;;;1.80;99.90;;;;;;4883113;29;20025;-87
2022/03/21 03:45:14;;;;;;;34.30;22.02;;;1.80;99.90;;;;;;4883063;29;20090;-87
2022/03/21 03:47:41;;;;;;;32.92;22.25;;;1.70;99.90;;;;;;4900047;29;20503;-87
2022/03/21 03:50:07;;;;;;;32.90;21.98;;;1.70;99.90;;;;;;4898991;29;20044;-86
2022/03/21 03:52:33;;;;;;;34.20;23.92;;;1.60;99.90;;;;;;4898771;29;20464;-87
2022/03/21 03:54:59;;;;;;;35.40;23.63;;;1.60;99.90;;;;;;4898551;29;20067;-87
2022/03/21 03:57:24;;;;;;;34.38;23.60;;;1.60;99.90;;;;;;4898917;29;20049;-87
2022/03/21 03:59:50;;;;;;;33.15;22.55;;;1.60;99.90;;;;;;4900784;29;20040;-87
2022/03/21 04:02:17;;;;;;;34.83;22.23;;;1.50;99.90;;;;;;4898530;29;20491;-86
2022/03/21 04:04:43;;;;;;;33.80;22.27;;;1.50;99.90;;;;;;4898695;29;20127;-87
2022/03/21 04:07:09;;;;;;;31.92;21.40;;;1.40;99.90;;;;;;4899094;29;20120;-86
2022/03/21 04:09:35;;;;;;;31.02;20.27;;;1.40;99.90;;;;;;4898523;29;20061;-86
2022/03/21 04:12:02;;;;;;;30.90;21.52;;;1.40;99.90;;;;;;4900141;29;20029;-87
2022/03/21 04:14:28;;;;;;;28.17;20.42;;;1.40;99.90;;;;;;4899635;29;20039;-87
2022/03/21 04:16:54;;;;;;;33.88;23.42;;;1.30;99.90;;;;;;4899471;29;20053;-86
2022/03/21 04:19:19;;;;;;;31.52;21.30;;;1.30;99.90;;;;;;4898046;29;20492;-87
2022/03/21 04:21:45;;;;;;;27.75;20.02;;;1.30;99.90;;;;;;4882980;29;20135;-86
2022/03/21 04:24:11;;;;;;;31.27;19.80;;;1.30;99.90;;;;;;4897880;29;20431;-86
2022/03/21 04:26:37;;;;;;;29.52;20.42;;;1.30;99.90;;;;;;4898047;29;20047;-86
2022/03/21 04:29:04;;;;;;;30.75;20.08;;;1.30;99.90;;;;;;4882549;29;20032;-85
2022/03/21 04:31:33;;;;;;;31.00;20.65;;;1.30;99.90;;;;;;4882555;29;20044;-87
2022/03/21 04:33:59;;;;;;;28.48;19.42;;;1.30;99.90;;;;;;4898469;29;20037;-87
2022/03/21 04:36:25;;;;;;;31.02;20.55;;;1.30;99.90;;;;;;4897992;29;20123;-86
2022/03/21 04:38:50;;;;;;;28.90;19.52;;;1.20;99.90;;;;;;4899295;29;20036;-87
2022/03/21 04:41:17;;;;;;;29.33;20.00;;;1.30;99.90;;;;;;4897909;29;20092;-87
2022/03/21 04:43:42;;;;;;;30.92;20.45;;;1.20;99.90;;;;;;4899778;29;20036;-87
2022/03/21 04:46:09;;;;;;;28.27;19.38;;;1.20;99.90;;;;;;4884756;29;20057;-87
2022/03/21 04:48:34;;;;;;;28.05;19.38;;;1.20;99.90;;;;;;4883605;29;20033;-87
2022/03/21 04:51:00;;;;;;;28.92;19.23;;;1.20;99.90;;;;;;4899091;29;20507;-87
2022/03/21 04:53:25;;;;;;;29.10;19.63;;;1.20;99.90;;;;;;4883586;29;20127;-86
2022/03/21 04:55:51;;;;;;;30.58;19.23;;;1.20;99.90;;;;;;4900312;29;20440;-87
2022/03/21 04:58:17;;;;;;;28.25;20.10;;;1.20;99.90;;;;;;4901099;29;20060;-87
2022/03/21 05:00:44;;;;;;;29.58;20.23;;;1.10;99.90;;;;;;4903684;29;20048;-87
2022/03/21 05:03:10;;;;;;;32.30;21.67;;;1.10;99.90;;;;;;4917514;29;20050;-88
2022/03/21 05:05:36;;;;;;;36.08;23.13;;;1.10;99.90;;;;;;4911267;29;20033;-88
2022/03/21 05:08:02;;;;;;;36.00;23.90;;;1.00;99.90;;;;;;4919131;29;20037;-87
2022/03/21 05:10:28;;;;;;;31.50;21.15;;;1.00;99.90;;;;;;4922372;29;20069;-88
2022/03/21 05:12:54;;;;;;;34.70;22.17;;;1.00;99.90;;;;;;4922136;29;20035;-88
2022/03/21 05:15:20;;;;;;;32.17;21.90;;;0.90;99.90;;;;;;4906488;29;20056;-88
2022/03/21 05:17:46;;;;;;;31.83;19.98;;;1.00;99.90;;;;;;4922877;29;20044;-86
2022/03/21 05:20:15;;;;;;;29.67;20.15;;;0.90;99.90;;;;;;4922553;29;20024;-87
2022/03/21 05:22:42;;;;;;;28.80;19.50;;;0.90;99.90;;;;;;4922080;29;20073;-86
2022/03/21 05:36:05;;;;;;;27.45;19.00;;;0.80;99.90;;;;;;4920191;29;20054;-87
2022/03/21 05:38:31;;;;;;;32.83;20.10;;;0.80;99.90;;;;;;4912918;29;20036;-88
2022/03/21 05:41:03;;;;;;;27.48;18.08;;;0.80;99.90;;;;;;4891379;29;20100;-89
2022/03/21 05:43:33;;;;;;;28.67;19.23;;;0.80;99.90;;;;;;4906111;29;20037;-87
2022/03/21 05:46:01;;;;;;;30.58;19.08;;;0.80;99.90;;;;;;4899536;29;20036;-87
2022/03/21 05:48:51;;;;;;;29.15;19.35;;;0.80;99.90;;;;;;4898244;29;20071;-88
2022/03/21 05:51:22;;;;;;;27.98;19.58;;;0.80;99.90;;;;;;4886177;29;20119;-88
2022/03/21 05:53:48;;;;;;;33.90;21.98;;;0.80;99.90;;;;;;4910976;29;20423;-88
2022/03/21 05:56:14;;;;;;;31.80;20.58;;;0.80;99.90;;;;;;4916851;29;20052;-85
2022/03/21 05:58:40;;;;;;;28.33;19.42;;;0.70;99.90;;;;;;4911776;29;20036;-88
2022/03/21 06:01:07;;;;;;;31.60;20.63;;;0.80;99.90;;;;;;4912495;29;20069;-90
2022/03/21 06:03:33;;;;;;;30.77;20.40;;;0.80;99.90;;;;;;4908886;29;20036;-88
2022/03/21 06:06:00;;;;;;;29.20;19.63;;;0.80;99.90;;;;;;4909342;29;20068;-85
2022/03/21 06:08:26;;;;;;;30.65;19.65;;;0.80;99.90;;;;;;4899173;29;20040;-89
2022/03/21 06:11:03;;;;;;;33.15;20.88;;;0.80;99.90;;;;;;4880664;29;20139;-87
2022/03/21 06:13:36;;;;;;;29.27;19.92;;;0.80;99.90;;;;;;4888693;29;20040;-87
2022/03/21 06:16:04;;;;;;;32.38;21.02;;;0.80;99.90;;;;;;4902336;29;20044;-86
2022/03/21 06:18:34;;;;;;;30.33;20.30;;;0.80;99.90;;;;;;4912559;29;20075;-89
2022/03/21 06:21:01;;;;;;;29.42;20.25;;;0.90;99.90;;;;;;4893869;29;20037;-87
2022/03/21 06:23:26;;;;;;;29.30;19.05;;;0.90;99.90;;;;;;4880660;29;20029;-86
2022/03/21 06:25:56;;;;;;;30.00;19.55;;;0.90;99.90;;;;;;4908494;29;20099;-88
2022/03/21 06:28:22;;;;;;;27.45;18.13;;;1.00;99.90;;;;;;4894911;29;20192;-88
2022/03/21 06:30:51;;;;;;;27.20;18.45;;;1.00;99.90;;;;;;4896612;29;20029;-88
2022/03/21 06:33:23;;;;;;;25.08;17.08;;;1.10;99.90;;;;;;4881360;29;20130;-89
2022/03/21 06:35:49;;;;;;;24.25;16.67;;;1.10;99.90;;;;;;4889551;29;20088;-89
2022/03/21 06:38:15;;;;;;;28.23;18.25;;;1.20;99.90;;;;;;4881071;29;20127;-89
2022/03/21 06:40:42;;;;;;;25.27;17.65;;;1.20;99.90;;;;;;4897960;29;20040;-88
2022/03/21 06:43:08;;;;;;;25.60;16.42;;;1.30;99.90;;;;;;4921998;29;20036;-87
2022/03/21 06:45:34;;;;;;;26.52;17.75;;;1.30;99.90;;;;;;4904069;29;20024;-88
2022/03/21 06:48:00;;;;;;;24.92;17.63;;;1.40;99.90;;;;;;4900249;29;20448;-88
2022/03/21 06:50:26;;;;;;;25.08;17.42;;;1.40;99.90;;;;;;4901522;29;20489;-88
2022/03/21 06:52:51;;;;;;;26.80;17.48;;;1.50;99.90;;;;;;4884398;29;20080;-88
2022/03/21 06:55:19;;;;;;;25.23;17.70;;;1.60;99.90;;;;;;4918567;29;20032;-88
2022/03/21 06:57:45;;;;;;;25.73;15.82;;;1.70;99.90;;;;;;4907213;29;20428;-87
2022/03/21 07:00:13;;;;;;;24.52;16.10;;;1.80;99.90;;;;;;4884060;29;20509;-86
2022/03/21 07:02:40;;;;;;;23.08;16.20;;;1.90;99.90;;;;;;4915664;29;20723;-90
2022/03/21 07:05:07;;;;;;;24.00;15.70;;;2.10;99.90;;;;;;4901281;29;20040;-89
2022/03/21 07:07:33;;;;;;;22.60;15.38;;;2.20;99.90;;;;;;4900733;29;20436;-89
2022/03/21 07:09:59;;;;;;;23.13;15.18;;;2.30;99.90;;;;;;4912922;29;20028;-88
2022/03/21 07:12:28;;;;;;;23.23;15.82;;;2.50;99.90;;;;;;4900062;29;20506;-88
2022/03/21 07:14:56;;;;;;;22.33;15.13;;;2.70;99.90;;;;;;4886240;29;20044;-86
2022/03/21 07:17:23;;;;;;;24.35;15.88;;;2.90;99.90;;;;;;4900466;29;20052;-88
2022/03/21 07:19:49;;;;;;;22.33;14.95;;;3.00;99.90;;;;;;4901195;29;20522;-89
2022/03/21 07:22:16;;;;;;;25.90;17.33;;;3.20;99.90;;;;;;4902581;29;20032;-89
2022/03/21 07:24:42;;;;;;;23.15;15.65;;;3.30;99.90;;;;;;4902709;29;20028;-88
2022/03/21 07:27:08;;;;;;;22.80;15.60;;;3.50;99.90;;;;;;4899886;29;20049;-88
2022/03/21 07:29:34;;;;;;;21.92;15.68;;;3.70;99.90;;;;;;4884319;29;20035;-88
2022/03/21 07:32:00;;;;;;;26.17;16.55;;;3.80;99.90;;;;;;4884254;29;20040;-89
2022/03/21 07:34:25;;;;;;;25.23;16.77;;;4.00;99.90;;;;;;4900750;29;20033;-90
2022/03/21 07:36:51;;;;;;;23.98;17.30;;;4.10;99.90;;;;;;4898882;29;20056;-86
2022/03/21 07:39:17;;;;;;;22.48;16.27;;;4.30;99.90;;;;;;4883830;29;20040;-88
2022/03/21 07:41:43;;;;;;;25.77;17.05;;;4.50;99.90;;;;;;4883951;29;20048;-88
2022/03/21 07:44:09;;;;;;;23.83;16.73;;;4.60;99.90;;;;;;4884033;29;20479;-90
2022/03/21 07:49:19;;;;;;;25.17;17.48;;;4.80;99.90;;;;;;4901112;29;20487;-90
2022/03/21 07:51:45;;;;;;;25.80;18.10;;;4.90;99.90;;;;;;4883567;29;20052;-88
2022/03/21 07:54:12;;;;;;;25.80;17.48;;;5.00;99.90;;;;;;4898787;29;20116;-88
2022/03/21 07:56:39;;;;;;;24.70;15.55;;;5.00;99.90;;;;;;4916832;29;20076;-88
2022/03/21 07:59:04;;;;;;;27.45;16.60;;;5.10;99.90;;;;;;4896203;29;20036;-87
2022/03/21 08:01:30;;;;;;;25.55;17.50;;;5.20;99.90;;;;;;4907692;29;20458;-88
2022/03/21 08:03:58;;;;;;;23.27;16.25;;;5.30;99.90;;;;;;4904379;29;20088;-88
2022/03/21 08:06:24;;;;;;;26.67;18.00;;;5.40;99.90;;;;;;4914897;29;20044;-88
2022/03/21 08:08:50;;;;;;;25.13;18.08;;;5.50;99.90;;;;;;4887566;29;20044;-89
2022/03/21 08:11:17;;;;;;;24.75;18.30;;;5.60;99.90;;;;;;4910566;29;20056;-88
2022/03/21 08:13:43;;;;;;;24.80;17.75;;;5.70;99.90;;;;;;4909549;29;20032;-90
2022/03/21 08:16:08;;;;;;;28.13;17.77;;;5.80;99.90;;;;;;4899054;29;20047;-88
2022/03/21 08:18:37;;;;;;;27.30;17.85;;;5.90;99.90;;;;;;4897262;29;20059;-87
2022/03/21 08:21:03;;;;;;;24.40;17.05;;;6.00;99.90;;;;;;4884497;29;20547;-87
2022/03/21 08:23:29;;;;;;;23.90;16.27;;;6.10;99.90;;;;;;4894338;29;20087;-88
2022/03/21 08:25:57;;;;;;;23.77;17.58;;;6.20;99.90;;;;;;4919775;29;20036;-87
2022/03/21 08:28:23;;;;;;;21.90;15.85;;;6.30;99.90;;;;;;4900213;29;20423;-87
2022/03/21 08:30:48;;;;;;;23.50;16.10;;;6.40;99.90;;;;;;4901144;29;20063;-87
2022/03/21 08:33:15;;;;;;;23.50;15.57;;;6.50;99.90;;;;;;4888299;29;20491;-87
2022/03/21 08:35:41;;;;;;;21.85;15.85;;;6.60;99.90;;;;;;4901059;29;20032;-88
2022/03/21 08:38:08;;;;;;;20.73;14.75;;;6.70;99.90;;;;;;4915200;29;20115;-87
2022/03/21 08:40:38;;;;;;;25.67;17.70;;;6.80;99.90;;;;;;4916399;29;20037;-89
2022/03/21 08:43:06;;;;;;;24.63;17.15;;;7.00;99.90;;;;;;4914161;29;20080;-89
2022/03/21 08:45:32;;;;;;;24.42;16.70;;;7.10;99.90;;;;;;4898544;29;20039;-86
2022/03/21 08:47:57;;;;;;;20.48;15.68;;;7.20;99.90;;;;;;4912851;29;20123;-87
2022/03/21 08:50:23;;;;;;;22.42;15.07;;;7.40;99.90;;;;;;4900298;29;20063;-87
2022/03/21 08:52:49;;;;;;;21.70;14.63;;;7.50;99.90;;;;;;4888235;29;20048;-87
2022/03/21 08:55:15;;;;;;;19.95;14.73;;;7.60;99.90;;;;;;4912012;29;20032;-86
2022/03/21 08:57:41;;;;;;;25.40;16.33;;;7.80;99.90;;;;;;4893123;29;20115;-87
2022/03/21 09:00:08;;;;;;;21.98;15.52;;;7.90;99.90;;;;;;4898725;29;20025;-87
2022/03/21 09:02:34;;;;;;;20.75;14.60;;;8.00;99.90;;;;;;4884347;29;20056;-88
2022/03/21 09:05:00;;;;;;;28.48;17.92;;;8.10;99.90;;;;;;4914869;29;20380;-88
2022/03/21 09:07:26;;;;;;;35.90;21.63;;;8.20;99.90;;;;;;4889999;29;20072;-88
2022/03/21 09:09:52;;;;;;;28.65;19.45;;;8.40;99.90;;;;;;4900362;29;20036;-90
2022/03/21 09:12:17;;;;;;;23.63;16.65;;;8.60;99.90;;;;;;4883237;29;20037;-89
2022/03/21 09:14:43;;;;;;;22.95;16.73;;;8.70;99.90;;;;;;4883821;29;20040;-90
2022/03/21 09:17:09;;;;;;;24.85;16.58;;;8.80;99.90;;;;;;4887481;29;20049;-91
2022/03/21 09:19:35;;;;;;;21.88;14.93;;;8.90;99.90;;;;;;4899536;29;20028;-89
2022/03/21 09:22:01;;;;;;;20.40;15.23;;;9.10;99.90;;;;;;4914613;29;20124;-90
2022/03/21 09:24:27;;;;;;;26.10;16.88;;;9.20;99.90;;;;;;4919995;29;20068;-89
2022/03/21 09:26:53;;;;;;;20.40;14.25;;;9.30;99.90;;;;;;4887367;29;20040;-87
2022/03/21 09:29:19;;;;;;;22.60;14.98;;;9.50;99.90;;;;;;4901855;29;20032;-88
2022/03/21 09:31:47;;;;;;;19.52;13.70;;;9.60;99.90;;;;;;4898659;29;20444;-87
2022/03/21 09:34:14;;;;;;;21.48;13.57;;;9.70;99.90;;;;;;4883008;29;20071;-88
2022/03/21 09:36:40;;;;;;;20.05;13.65;;;9.80;99.90;;;;;;4902998;29;20069;-85
2022/03/21 09:39:07;;;;;;;17.88;13.10;;;10.00;99.90;;;;;;4902924;29;20048;-86
2022/03/21 09:41:33;;;;;;;20.70;13.68;;;10.10;99.90;;;;;;4904968;29;20435;-89
2022/03/21 09:44:03;;;;;;;26.83;16.20;;;10.20;99.90;;;;;;4904320;29;20037;-91
2022/03/21 09:46:29;;;;;;;24.00;15.48;;;10.40;99.90;;;;;;4917772;29;20403;-88
2022/03/21 09:48:56;;;;;;;27.40;18.85;;;10.50;99.90;;;;;;4905906;29;20072;-91
2022/03/21 09:51:26;;;;;;;21.98;16.75;;;10.90;99.90;;;;;;4925550;29;20071;-90
2022/03/21 09:53:53;;;;;;;23.02;14.85;;;12.00;99.90;;;;;;4920694;29;20068;-86
2022/03/21 09:56:21;;;;;;;20.13;15.52;;;13.60;99.90;;;;;;4883369;29;20396;-86
2022/03/21 09:58:47;;;;;;;20.90;14.65;;;15.10;99.90;;;;;;4884083;29;20033;-88
2022/03/21 10:01:14;;;;;;;16.60;12.15;;;16.30;99.90;;;;;;4884470;29;20079;-88
2022/03/21 10:03:41;;;;;;;21.52;13.48;;;17.30;99.90;;;;;;4893800;29;20463;-90
2022/03/21 10:06:32;;;;;;;17.52;12.52;;;18.10;99.90;;;;;;4898639;29;20025;-90
2022/03/21 10:09:10;;;;;;;14.25;10.23;;;19.00;99.90;;;;;;4901994;29;20035;-87
2022/03/21 10:11:37;;;;;;;16.98;10.88;;;19.50;99.90;;;;;;4911409;29;20487;-86
2022/03/21 10:14:36;;;;;;;13.13;9.90;;;20.00;99.90;;;;;;4910743;29;20036;-86
2022/03/21 10:17:08;;;;;;;13.15;8.85;;;20.70;99.90;;;;;;4884847;29;20049;-85
2022/03/21 10:19:43;;;;;;;14.60;10.73;;;21.20;99.90;;;;;;4892191;29;20069;-86
2022/03/21 10:22:11;;;;;;;17.35;12.35;;;21.60;99.90;;;;;;4900306;29;20043;-85
2022/03/21 10:24:40;;;;;;;15.95;11.32;;;21.70;98.20;;;;;;4913907;29;20033;-85
2022/03/21 10:27:24;;;;;;;14.32;10.93;;;21.80;98.00;;;;;;4908455;29;20040;-87
2022/03/21 10:29:52;;;;;;;21.20;13.40;;;22.10;97.30;;;;;;4904893;29;20051;-87
2022/03/21 10:32:46;;;;;;;16.63;11.38;;;22.40;96.20;;;;;;4901191;29;20522;-88
2022/03/21 10:35:22;;;;;;;14.75;11.38;;;22.70;95.40;;;;;;4907171;29;20269;-88
2022/03/21 10:37:53;;;;;;;14.65;11.75;;;22.90;94.50;;;;;;4901712;29;20033;-87
2022/03/21 10:40:36;;;;;;;16.13;12.60;;;23.00;93.70;;;;;;4885318;29;20507;-86
2022/03/21 10:43:20;;;;;;;18.08;14.38;;;23.30;92.20;;;;;;4920577;29;20034;-86
2022/03/21 10:45:51;;;;;;;18.67;13.75;;;23.30;90.20;;;;;;4892548;29;20040;-87
2022/03/21 10:48:18;;;;;;;14.23;11.38;;;23.30;90.30;;;;;;4901266;29;20105;-89
2022/03/21 10:50:46;;;;;;;14.85;11.23;;;23.40;90.40;;;;;;4921322;29;20040;-87
2022/03/21 10:53:18;;;;;;;18.35;14.25;;;23.70;90.20;;;;;;4909005;29;20119;-88
2022/03/21 10:55:51;;;;;;;13.88;11.43;;;23.80;87.40;;;;;;4899757;29;20044;-86
2022/03/21 10:58:32;;;;;;;20.40;15.10;;;23.80;86.80;;;;;;4901378;29;20526;-86
2022/03/21 11:01:09;;;;;;;19.98;15.57;;;23.90;84.60;;;;;;4919636;29;20044;-87
2022/03/21 11:03:40;;;;;;;16.60;12.65;;;23.80;82.40;;;;;;4900615;29;20410;-88
2022/03/21 11:06:11;;;;;;;13.63;10.85;;;23.80;83.40;;;;;;4911884;29;20075;-86
2022/03/21 11:08:37;;;;;;;15.95;11.27;;;24.10;83.20;;;;;;4901382;29;20051;-86
2022/03/21 11:11:04;;;;;;;12.35;10.18;;;24.40;82.60;;;;;;4883741;29;20044;-86
2022/03/21 11:13:31;;;;;;;13.95;10.50;;;24.40;82.10;;;;;;4898759;29;20056;-87
2022/03/21 11:15:58;;;;;;;16.00;11.73;;;24.60;81.20;;;;;;4881360;29;20055;-92
2022/03/21 11:18:28;;;;;;;13.45;10.52;;;24.70;80.50;;;;;;4898721;29;20055;-89
2022/03/21 11:20:56;;;;;;;17.23;12.90;;;24.80;80.40;;;;;;4897679;29;20481;-89
2022/03/21 11:23:25;;;;;;;15.23;10.60;;;24.90;79.30;;;;;;4889920;29;20572;-87
2022/03/21 11:26:14;;;;;;;13.18;10.85;;;25.20;79.40;;;;;;4916002;29;20080;-89
2022/03/21 11:28:45;;;;;;;12.48;10.30;;;25.60;78.40;;;;;;4853197;29;20503;-92
2022/03/21 11:31:41;;;;;;;13.55;10.93;;;25.70;77.90;;;;;;4897831;29;20127;-91
2022/03/21 11:34:31;;;;;;;13.50;11.02;;;25.80;77.90;;;;;;4905616;29;20046;-90
2022/03/21 11:36:59;;;;;;;18.40;13.30;;;26.10;76.80;;;;;;4890656;29;20041;-86
2022/03/21 11:39:30;;;;;;;15.27;11.95;;;26.20;75.70;;;;;;4912722;29;20044;-84
2022/03/21 11:42:08;;;;;;;17.73;13.57;;;26.20;74.80;;;;;;4906621;29;20499;-85
2022/03/21 11:44:35;;;;;;;16.83;10.48;;;26.20;74.10;;;;;;4902494;29;20088;-89
2022/03/21 11:47:24;;;;;;;12.25;10.05;;;26.30;74.90;;;;;;4900383;29;20451;-88
2022/03/21 11:49:51;;;;;;;15.27;11.30;;;26.70;74.30;;;;;;4899937;29;20045;-88
2022/03/21 11:52:17;;;;;;;16.42;12.40;;;27.00;74.20;;;;;;4884601;29;20063;-88
2022/03/21 11:54:43;;;;;;;15.25;11.68;;;27.10;73.90;;;;;;4916353;29;20492;-89
2022/03/21 11:57:17;;;;;;;12.02;9.55;;;27.00;72.00;;;;;;4890938;29;20036;-88
2022/03/21 11:59:48;;;;;;;12.93;11.02;;;27.00;72.70;;;;;;4900359;29;20076;-87
2022/03/21 12:02:14;;;;;;;13.82;11.35;;;27.00;72.10;;;;;;4884120;29;20060;-88
2022/03/21 12:04:41;;;;;;;13.18;10.20;;;27.00;72.10;;;;;;4902809;29;20040;-90
2022/03/21 12:07:12;;;;;;;16.20;9.80;;;27.00;71.20;;;;;;4899678;29;20044;-89
2022/03/21 12:09:50;;;;;;;13.95;11.35;;;27.20;71.20;;;;;;4891535;29;20086;-91
2022/03/21 12:12:20;;;;;;;15.45;12.95;;;27.20;70.40;;;;;;4899321;29;20056;-90
2022/03/21 12:14:47;;;;;;;13.70;11.27;;;27.00;69.00;;;;;;4904132;29;20036;-89
2022/03/21 12:17:13;;;;;;;14.75;11.13;;;26.80;69.50;;;;;;4899114;29;20041;-90
2022/03/21 12:22:34;;;;;;;17.70;13.13;;;26.80;68.90;;;;;;4900319;29;20039;-87
2022/03/21 12:25:01;;;;;;;14.45;11.32;;;27.00;68.00;;;;;;4903634;29;20074;-90
2022/03/21 12:27:33;;;;;;;12.63;10.55;;;26.90;67.50;;;;;;4899276;29;20051;-90
2022/03/21 12:30:29;;;;;;;18.00;13.57;;;27.00;68.10;;;;;;4895680;29;20051;-90
2022/03/21 12:33:10;;;;;;;18.33;12.95;;;27.10;68.20;;;;;;4883659;29;20044;-88
2022/03/21 12:35:39;;;;;;;16.50;11.88;;;27.00;67.90;;;;;;4901001;29;20044;-89
2022/03/21 12:38:07;;;;;;;15.38;11.55;;;26.90;68.60;;;;;;4893955;29;20492;-89
2022/03/21 12:40:55;;;;;;;18.08;12.65;;;27.00;67.40;;;;;;4900055;29;20028;-90
2022/03/21 12:43:29;;;;;;;12.48;10.63;;;27.00;67.80;;;;;;4884279;29;20040;-90
2022/03/21 12:46:07;;;;;;;15.20;11.90;;;27.20;67.90;;;;;;4898574;29;20119;-90
2022/03/21 12:48:44;;;;;;;14.63;11.77;;;27.40;67.40;;;;;;4901718;29;20056;-91
2022/03/21 12:51:13;;;;;;;13.85;11.85;;;27.40;67.00;;;;;;4908109;29;20040;-89
2022/03/21 12:53:47;;;;;;;11.95;10.68;;;27.40;67.20;;;;;;4918679;29;20025;-89
2022/03/21 12:56:15;;;;;;;21.80;15.27;;;27.50;67.40;;;;;;4898428;29;20039;-91
2022/03/21 12:58:46;;;;;;;17.33;13.48;;;27.60;67.20;;;;;;4915790;29;20048;-90
2022/03/21 13:01:17;;;;;;;15.18;12.45;;;27.40;67.80;;;;;;4907453;29;20046;-87